Time;durP1;ratioP1;P1;durP2;ratioP2;P2;SDS_P1;SDS_P2;PMS_P1;PMS_P2;Temp;Humidity;BMP_temperature;BMP_pressure;BME280_temperature;BME280_humidity;BME280_pressure;Samples;Min_cycle;Max_cycle;Signal;HPM_P1;HPM_P2
2022/03/28 00:02:06;;;;;;;;;15.75;14.25;;;;;20.29;29.70;102028.59;4974759;28;55221;-43
2022/03/28 00:04:32;;;;;;;;;14.50;13.50;;;;;20.28;29.47;102021.59;4974832;28;45418;-50
2022/03/28 00:06:58;;;;;;;;;14.75;13.25;;;;;20.28;29.70;102026.88;4975021;28;45462;-43
2022/03/28 00:09:24;;;;;;;;;15.50;14.00;;;;;20.28;29.38;102016.34;4975171;28;45277;-43
2022/03/28 00:11:49;;;;;;;;;19.25;14.25;;;;;20.29;29.33;102018.06;4975374;28;45932;-47
2022/03/28 00:14:14;;;;;;;;;16.25;14.25;;;;;20.29;29.35;102017.19;4974778;28;45338;-43
2022/03/28 00:16:40;;;;;;;;;15.75;13.75;;;;;20.29;29.42;102012.78;4974983;28;45407;-43
2022/03/28 00:19:06;;;;;;;;;14.25;14.00;;;;;20.29;29.68;102007.53;4975247;28;45615;-46
2022/03/28 00:21:31;;;;;;;;;15.25;12.50;;;;;20.27;29.82;102009.34;4973320;28;46725;-46
2022/03/28 00:23:56;;;;;;;;;14.00;11.25;;;;;20.28;29.58;102011.06;4974868;28;45690;-50
2022/03/28 00:26:22;;;;;;;;;15.25;14.75;;;;;20.29;29.70;102007.53;4974764;28;45685;-49
2022/03/28 00:28:47;;;;;;;;;14.25;13.00;;;;;20.27;29.93;102003.25;4974845;28;45537;-44
2022/03/28 00:31:14;;;;;;;;;12.75;10.50;;;;;20.27;29.65;102004.09;4974377;28;45980;-50
2022/03/28 00:33:39;;;;;;;;;16.75;14.25;;;;;20.28;29.48;102003.19;4974840;28;45437;-48
2022/03/28 00:36:05;;;;;;;;;13.67;13.67;;;;;20.28;29.92;101995.28;4974698;28;45280;-52
2022/03/28 00:38:30;;;;;;;;;16.50;15.00;;;;;20.29;29.86;101998.75;4974753;28;45315;-54
2022/03/28 00:40:56;;;;;;;;;14.25;14.00;;;;;20.29;29.55;101998.75;4989480;28;47571;-49
2022/03/28 00:43:21;;;;;;;;;16.00;14.00;;;;;20.28;29.80;101995.28;4974463;28;45869;-45
2022/03/28 00:45:47;;;;;;;;;12.75;12.75;;;;;20.28;29.68;101990.00;4974350;28;45403;-50
2022/03/28 00:48:12;;;;;;;;;16.25;14.75;;;;;20.28;30.03;101983.91;4974625;28;45780;-46
2022/03/28 00:50:39;;;;;;;;;14.25;14.25;;;;;20.29;29.81;101990.84;4974483;28;46282;-45
2022/03/28 00:53:06;;;;;;;;;17.75;13.75;;;;;20.28;29.94;101984.75;4974271;28;45275;-54
2022/03/28 00:55:32;;;;;;;;;15.25;14.00;;;;;20.29;29.99;101989.09;4974391;28;45392;-56
2022/03/28 00:57:57;;;;;;;;;14.50;13.25;;;;;20.28;29.94;101984.75;4974636;28;45578;-48
2022/03/28 01:00:23;;;;;;;;;13.25;12.50;;;;;20.28;29.90;101984.75;4973900;28;47055;-53
2022/03/28 01:02:49;;;;;;;;;15.25;13.25;;;;;20.27;29.95;101985.66;4974045;28;45537;-49
2022/03/28 01:05:15;;;;;;;;;13.75;12.25;;;;;20.28;29.85;101984.75;4974252;28;45766;-53
2022/03/28 01:07:41;;;;;;;;;14.50;13.25;;;;;20.29;29.70;101982.97;4974544;28;45350;-55
2022/03/28 01:10:11;;;;;;;;;15.25;12.25;;;;;20.28;30.30;101976.84;4974185;28;46237;-55
2022/03/28 01:12:42;;;;;;;;;14.25;12.00;;;;;20.28;30.23;101978.63;4974002;28;45703;-52
2022/03/28 01:15:08;;;;;;;;;14.25;13.25;;;;;20.27;30.48;101972.50;4974197;28;45146;-57
2022/03/28 01:20:18;;;;;;;;;13.25;12.75;;;;;20.27;30.30;101954.06;4973798;28;45866;-51
2022/03/28 01:22:43;;;;;;;;;15.25;14.25;;;;;20.26;30.48;101957.63;4974183;28;45277;-53
2022/03/28 01:25:09;;;;;;;;;15.75;14.75;;;;;20.28;30.44;101953.16;4974042;28;45658;-56
2022/03/28 01:27:37;;;;;;;;;14.00;12.25;;;;;20.27;30.06;101959.34;4974046;28;45576;-52
2022/03/28 01:30:07;;;;;;;;;15.50;14.50;;;;;20.28;30.50;101955.78;4973697;28;47039;-54
2022/03/28 01:32:32;;;;;;;;;16.00;14.50;;;;;20.26;30.65;101949.72;4972485;28;45300;-50
2022/03/28 01:34:58;;;;;;;;;16.50;13.50;;;;;20.28;30.40;101950.53;4973932;28;45235;-55
2022/03/28 01:37:23;;;;;;;;;17.50;13.50;;;;;20.28;30.31;101941.78;4973851;28;45630;-53
2022/03/28 01:39:49;;;;;;;;;13.25;13.25;;;;;20.27;30.53;101940.91;4973659;28;46173;-56
2022/03/28 01:42:14;;;;;;;;;14.25;13.50;;;;;20.28;30.29;101945.25;4973829;28;45674;-47
2022/03/28 01:44:40;;;;;;;;;13.25;11.00;;;;;20.28;30.24;101941.78;4973861;28;45359;-51
2022/03/28 01:47:05;;;;;;;;;16.75;15.00;;;;;20.27;30.33;101942.69;4973816;28;45502;-54
2022/03/28 01:49:31;;;;;;;;;14.25;14.25;;;;;20.27;30.81;101943.53;4973345;28;45208;-55
2022/03/28 01:51:56;;;;;;;;;13.75;11.25;;;;;20.27;30.81;101935.63;4956107;28;45831;-50
2022/03/28 01:54:21;;;;;;;;;9.75;9.25;;;;;20.28;30.76;101939.16;4973549;28;45699;-45
2022/03/28 01:56:47;;;;;;;;;13.50;12.50;;;;;20.27;30.33;101935.63;4973496;28;45507;-53
2022/03/28 01:59:12;;;;;;;;;12.50;11.50;;;;;20.27;30.26;101930.38;4972409;28;47663;-45
2022/03/28 02:01:38;;;;;;;;;16.00;14.25;;;;;20.27;30.71;101934.78;4973290;28;45392;-49
2022/03/28 02:04:04;;;;;;;;;13.50;13.25;;;;;20.26;30.83;101927.81;4973416;28;45437;-48
2022/03/28 02:06:32;;;;;;;;;16.25;14.25;;;;;20.27;30.57;101933.00;4973494;28;45494;-47
2022/03/28 02:08:58;;;;;;;;;15.25;12.25;;;;;20.27;30.58;101932.16;4973014;28;46633;-50
2022/03/28 02:11:23;;;;;;;;;14.50;13.50;;;;;20.25;30.70;101932.19;4973192;28;45292;-46
2022/03/28 02:13:48;;;;;;;;;16.25;14.25;;;;;20.27;30.74;101933.00;4973238;28;45220;-53
2022/03/28 02:16:14;;;;;;;;;13.75;13.75;;;;;20.27;30.57;101933.00;4973642;28;45350;-54
2022/03/28 02:18:39;;;;;;;;;13.00;13.00;;;;;20.27;30.57;101929.53;4972736;28;45214;-44
2022/03/28 02:21:05;;;;;;;;;15.50;14.25;;;;;20.27;30.73;101930.38;4975050;28;45252;-50
2022/03/28 02:23:31;;;;;;;;;17.25;14.25;;;;;20.27;31.17;101925.09;4976110;28;45368;-54
2022/03/28 02:25:56;;;;;;;;;15.00;12.50;;;;;20.26;31.12;101930.44;4976265;28;45567;-54
2022/03/28 02:28:22;;;;;;;;;5.00;5.00;;;;;20.27;31.20;101929.53;4976015;28;46149;-49
2022/03/28 02:30:47;;;;;;;;;18.25;16.75;;;;;20.26;30.67;101928.66;4975870;28;45453;-53
2022/03/28 02:33:13;;;;;;;;;14.00;12.00;;;;;20.26;31.12;101923.38;4976388;28;45329;-50
2022/03/28 02:35:40;;;;;;;;;15.50;13.75;;;;;20.26;31.01;101928.66;4976349;28;45458;-47
2022/03/28 02:38:06;;;;;;;;;15.50;10.75;;;;;20.26;30.79;101928.66;4975914;28;47115;-52
2022/03/28 02:40:32;;;;;;;;;15.25;13.75;;;;;20.26;31.23;101927.81;4975936;28;45295;-50
2022/03/28 02:42:59;;;;;;;;;15.75;13.00;;;;;20.26;30.98;101919.91;4976004;28;45179;-47
2022/03/28 02:45:26;;;;;;;;;15.00;13.50;;;;;20.26;31.30;101915.50;4976143;28;45546;-47
2022/03/28 02:47:52;;;;;;;;;11.75;9.00;;;;;20.27;31.31;101914.56;4975669;28;46487;-51
2022/03/28 02:50:17;;;;;;;;;18.50;15.50;;;;;20.26;30.68;101907.59;4975978;28;45391;-51
2022/03/28 02:52:43;;;;;;;;;16.25;12.75;;;;;20.26;30.96;101902.31;4976058;28;45729;-50
2022/03/28 02:55:08;;;;;;;;;13.25;13.25;;;;;20.27;31.25;101904.06;4976045;28;45660;-51
2022/03/28 02:57:34;;;;;;;;;0.25;0.25;;;;;20.26;31.36;101897.06;4975688;28;45296;-46
2022/03/28 03:00:00;;;;;;;;;12.50;11.75;;;;;20.26;31.12;101897.06;4975598;28;45493;-49
2022/03/28 03:02:25;;;;;;;;;15.25;14.00;;;;;20.27;31.18;101890.88;4975589;28;45465;-48
2022/03/28 03:04:50;;;;;;;;;17.00;14.00;;;;;20.27;31.72;101898.78;4975880;28;45466;-50
2022/03/28 03:07:16;;;;;;;;;13.25;13.25;;;;;20.26;31.66;101894.44;4975851;28;45545;-46
2022/03/28 03:09:41;;;;;;;;;14.25;14.25;;;;;20.27;31.75;101890.88;4975599;28;45380;-44
2022/03/28 03:12:07;;;;;;;;;14.50;14.50;;;;;20.27;31.86;101887.41;4975708;28;45391;-49
2022/03/28 03:14:33;;;;;;;;;16.00;13.75;;;;;20.27;32.13;101884.78;4975820;28;45554;-46
2022/03/28 03:16:58;;;;;;;;;14.00;12.75;;;;;20.26;32.05;101883.91;4975262;28;46098;-47
2022/03/28 03:19:24;;;;;;;;;14.50;13.25;;;;;20.27;31.85;101876.88;4975394;28;45351;-45
2022/03/28 03:21:49;;;;;;;;;14.25;13.75;;;;;20.27;31.62;101872.47;4975464;28;45178;-44
2022/03/28 03:24:14;;;;;;;;;15.75;14.50;;;;;20.27;32.36;101871.63;4975565;28;48173;-44
2022/03/28 03:26:40;;;;;;;;;15.50;14.00;;;;;20.27;32.26;101875.09;4974077;28;48410;-51
2022/03/28 03:29:05;;;;;;;;;15.00;14.75;;;;;20.26;32.52;101873.38;4974231;28;45367;-52
2022/03/28 03:31:31;;;;;;;;;18.67;14.67;;;;;20.27;32.28;101869.81;4974010;28;45319;-52
2022/03/28 03:33:56;;;;;;;;;15.25;14.75;;;;;20.28;32.65;101873.34;4975649;28;45562;-55
2022/03/28 03:36:22;;;;;;;;;17.25;17.25;;;;;20.27;32.42;101869.81;4975147;28;45258;-49
2022/03/28 03:38:47;;;;;;;;;18.75;17.00;;;;;20.28;32.92;101874.19;4975426;28;45420;-49
2022/03/28 03:41:13;;;;;;;;;21.67;19.33;;;;;20.28;32.89;101871.53;4975145;28;47326;-53
2022/03/28 03:43:38;;;;;;;;;18.00;17.50;;;;;20.28;32.92;101874.19;4975419;28;45523;-47
2022/03/28 03:46:04;;;;;;;;;18.00;16.50;;;;;20.28;33.22;101876.81;4974889;28;45590;-44
2022/03/28 03:48:29;;;;;;;;;20.00;17.50;;;;;20.27;32.91;101869.81;4975035;28;45314;-45
2022/03/28 03:50:55;;;;;;;;;19.00;17.00;;;;;20.27;32.73;101866.34;4973977;28;45406;-49
2022/03/28 03:53:20;;;;;;;;;15.25;14.25;;;;;20.28;33.04;101865.44;4975522;28;45805;-46
2022/03/28 03:55:47;;;;;;;;;18.50;16.50;;;;;20.28;33.09;101873.34;4975249;28;46723;-55
2022/03/28 03:58:13;;;;;;;;;17.75;15.25;;;;;20.28;32.78;101871.53;4975020;28;45799;-48
2022/03/28 04:00:39;;;;;;;;;16.00;15.75;;;;;20.28;33.03;101865.44;4975163;28;45174;-55
2022/03/28 04:03:05;;;;;;;;;19.00;15.75;;;;;20.27;32.79;101869.81;4974061;28;45300;-48
2022/03/28 04:05:31;;;;;;;;;20.50;15.50;;;;;20.27;33.03;101867.19;4974688;28;46466;-51
2022/03/28 04:07:56;;;;;;;;;15.50;15.50;;;;;20.27;32.81;101867.19;4990197;28;45385;-55
2022/03/28 04:10:25;;;;;;;;;15.75;13.00;;;;;20.27;33.10;101867.19;4975011;28;45283;-43
2022/03/28 04:12:50;;;;;;;;;15.25;13.00;;;;;20.27;32.57;101859.28;4975386;28;45454;-54
2022/03/28 04:15:16;;;;;;;;;15.00;14.25;;;;;20.26;32.73;101854.94;4974657;28;45532;-51
2022/03/28 04:17:43;;;;;;;;;15.75;14.25;;;;;20.27;33.10;101867.19;4973368;28;45771;-54
2022/03/28 04:20:15;;;;;;;;;17.25;15.00;;;;;20.26;32.97;101870.75;4974770;28;45365;-50
2022/03/28 04:22:41;;;;;;;;;12.75;12.50;;;;;20.27;32.51;101867.19;4974930;28;45469;-49
2022/03/28 04:25:09;;;;;;;;;17.50;14.75;;;;;20.27;32.79;101866.34;4974530;28;45425;-51
2022/03/28 04:27:35;;;;;;;;;15.25;15.25;;;;;20.27;32.69;101869.81;4973444;28;45914;-50
2022/03/28 04:30:04;;;;;;;;;17.75;15.50;;;;;20.26;32.91;101870.75;4974827;28;45375;-43
2022/03/28 04:32:29;;;;;;;;;15.00;14.50;;;;;20.26;33.24;101869.91;4974769;28;45363;-48
2022/03/28 04:34:54;;;;;;;;;16.75;14.50;;;;;20.26;33.16;101876.00;4973065;28;46088;-48
2022/03/28 04:37:20;;;;;;;;;17.33;16.00;;;;;20.26;32.93;101870.75;4974515;28;51347;-50
2022/03/28 04:39:48;;;;;;;;;17.50;15.00;;;;;20.26;33.00;101869.91;4974445;28;45277;-47
2022/03/28 04:42:14;;;;;;;;;18.75;15.00;;;;;20.26;33.26;101869.91;4973380;28;45314;-48
2022/03/28 04:44:39;;;;;;;;;16.25;14.00;;;;;20.26;32.77;101869.91;4973899;28;46154;-47
2022/03/28 04:47:04;;;;;;;;;14.50;14.50;;;;;20.26;33.19;101862.00;4974404;28;45371;-46
2022/03/28 04:49:30;;;;;;;;;16.50;14.00;;;;;20.26;33.12;101865.47;4974499;28;45284;-44
2022/03/28 04:51:55;;;;;;;;;15.25;12.75;;;;;20.26;32.96;101860.22;4974681;28;45560;-53
2022/03/28 04:54:20;;;;;;;;;12.25;11.25;;;;;20.25;32.80;101853.22;4974563;28;45297;-50
2022/03/28 04:56:46;;;;;;;;;15.75;14.25;;;;;20.25;32.89;101850.59;4973981;28;48512;-48
2022/03/28 04:59:11;;;;;;;;;16.50;15.75;;;;;20.25;33.25;101855.84;4974526;28;45321;-50
2022/03/28 05:01:36;;;;;;;;;15.25;13.75;;;;;20.26;33.16;101851.47;4974416;28;45379;-48
2022/03/28 05:04:02;;;;;;;;;13.00;9.75;;;;;20.25;32.80;101855.84;4974051;28;45365;-57
2022/03/28 05:06:27;;;;;;;;;15.50;14.75;;;;;20.26;33.39;101851.47;4973892;28;45336;-51
2022/03/28 05:08:53;;;;;;;;;15.50;15.50;;;;;20.25;33.09;101853.22;4974622;28;45362;-53
2022/03/28 05:11:22;;;;;;;;;13.75;13.25;;;;;20.24;33.37;101855.00;4974677;28;45294;-49
2022/03/28 05:13:51;;;;;;;;;16.00;14.50;;;;;20.25;33.37;101847.97;4973804;28;46341;-43
2022/03/28 05:16:17;;;;;;;;;15.50;15.50;;;;;20.24;33.64;101844.47;4973960;28;45349;-52
2022/03/28 05:18:43;;;;;;;;;15.75;12.75;;;;;20.24;33.38;101846.25;4972472;28;45360;-48
2022/03/28 05:21:08;;;;;;;;;13.00;12.25;;;;;20.23;33.27;101844.53;4972769;28;45600;-50
2022/03/28 05:23:34;;;;;;;;;15.75;14.75;;;;;20.25;33.12;101847.97;4973791;28;46173;-50
2022/03/28 05:26:00;;;;;;;;;14.25;11.75;;;;;20.25;33.05;101845.31;4973815;28;45336;-53
2022/03/28 05:28:25;;;;;;;;;18.00;16.00;;;;;20.25;33.46;101850.59;4973879;28;45339;-48
2022/03/28 05:30:52;;;;;;;;;14.50;13.00;;;;;20.24;33.10;101839.22;4974445;28;45350;-52
2022/03/28 05:33:17;;;;;;;;;16.00;13.50;;;;;20.24;33.26;101846.25;4973632;28;46341;-48
2022/03/28 05:35:44;;;;;;;;;14.00;14.00;;;;;20.23;33.12;101839.25;4973709;28;45320;-55
2022/03/28 05:38:11;;;;;;;;;13.50;13.00;;;;;20.24;33.42;101841.84;4973919;28;45247;-53
2022/03/28 05:40:37;;;;;;;;;15.50;13.75;;;;;20.24;33.18;101852.38;4973974;28;45451;-55
2022/03/28 05:43:03;;;;;;;;;17.75;15.50;;;;;20.24;33.35;101852.38;4972300;28;47290;-54
2022/03/28 05:45:29;;;;;;;;;15.25;14.75;;;;;20.25;33.75;101853.22;4973440;28;45372;-55
2022/03/28 05:47:54;;;;;;;;;14.75;14.25;;;;;20.23;33.27;101847.16;4974002;28;45453;-56
2022/03/28 05:50:20;;;;;;;;;15.50;14.50;;;;;20.24;33.25;101843.59;4973831;28;45362;-53
2022/03/28 05:52:45;;;;;;;;;17.75;15.25;;;;;20.22;33.43;101841.03;4973173;28;47257;-54
2022/03/28 05:55:11;;;;;;;;;17.25;15.25;;;;;20.22;33.25;101837.56;4974451;28;45398;-50
2022/03/28 05:57:37;;;;;;;;;15.00;14.75;;;;;20.22;33.38;101838.41;4976580;28;45435;-52
2022/03/28 06:00:05;;;;;;;;;17.75;16.25;;;;;20.23;33.17;101839.25;4976812;28;45676;-55
2022/03/28 06:02:31;;;;;;;;;17.00;14.75;;;;;20.23;33.37;101841.88;4976231;28;46980;-52
2022/03/28 06:04:57;;;;;;;;;13.25;11.00;;;;;20.23;33.52;101844.53;4976528;28;45879;-51
2022/03/28 06:07:22;;;;;;;;;21.00;18.00;;;;;20.22;33.65;101840.19;4977009;28;45418;-50
2022/03/28 06:09:47;;;;;;;;;18.25;15.75;;;;;20.23;33.23;101844.53;4976562;28;45394;-46
2022/03/28 06:12:13;;;;;;;;;16.25;15.50;;;;;20.23;33.12;101839.25;4976128;28;45432;-47
2022/03/28 06:14:38;;;;;;;;;16.25;14.25;;;;;20.22;33.64;101838.41;4976310;28;45548;-51
2022/03/28 06:17:03;;;;;;;;;15.00;15.00;;;;;20.21;33.42;101838.47;4976061;28;45375;-47
2022/03/28 06:19:29;;;;;;;;;14.33;12.67;;;;;20.23;33.32;101836.63;4976466;28;45307;-52
2022/03/28 06:21:54;;;;;;;;;15.50;12.25;;;;;20.22;33.65;101837.56;4976332;28;45428;-51
2022/03/28 06:24:20;;;;;;;;;17.50;14.50;;;;;20.23;33.96;101836.63;4974870;28;45396;-51
2022/03/28 06:26:45;;;;;;;;;14.00;13.75;;;;;20.23;33.90;101839.25;4976127;28;45812;-52
2022/03/28 06:29:10;;;;;;;;;22.75;18.00;;;;;20.22;33.62;101843.69;4976041;28;45509;-55
2022/03/28 06:31:36;;;;;;;;;28.50;24.25;;;;;20.22;33.61;101842.84;4975523;28;47413;-50
2022/03/28 06:34:02;;;;;;;;;23.00;19.75;;;;;20.20;34.27;101834.13;4975705;28;45334;-54
2022/03/28 06:36:29;;;;;;;;;33.00;25.50;;;;;20.19;33.79;101843.78;4976172;28;45308;-49
2022/03/28 06:38:55;;;;;;;;;28.75;24.00;;;;;20.17;33.89;101835.13;4976377;28;45474;-48
2022/03/28 06:41:21;;;;;;;;;30.75;24.25;;;;;20.16;34.52;101838.66;4975511;28;46200;-55
2022/03/28 06:43:47;;;;;;;;;22.00;20.00;;;;;20.17;34.25;101834.25;4975565;28;45756;-54
2022/03/28 06:46:13;;;;;;;;;29.50;21.75;;;;;20.17;34.26;101834.25;4975622;28;45225;-48
2022/03/28 06:48:38;;;;;;;;;31.50;25.00;;;;;20.15;34.06;101826.41;4975827;28;45329;-44
2022/03/28 06:51:06;;;;;;;;;28.75;26.75;;;;;20.16;34.08;101832.53;4975398;28;46314;-53
2022/03/28 06:53:32;;;;;;;;;27.75;24.50;;;;;20.15;34.06;101833.44;4975457;28;45999;-54
2022/03/28 06:55:57;;;;;;;;;29.50;27.00;;;;;20.16;34.17;101827.25;4976029;28;45341;-50
2022/03/28 06:58:23;;;;;;;;;30.50;25.75;;;;;20.15;34.26;101830.81;4975782;28;45300;-46
2022/03/28 07:00:49;;;;;;;;;29.75;26.50;;;;;20.15;34.20;101825.53;4975421;28;45880;-53
2022/03/28 07:03:14;;;;;;;;;31.50;25.00;;;;;20.14;34.71;101823.81;4975590;28;45248;-52
2022/03/28 07:05:40;;;;;;;;;22.75;21.25;;;;;20.13;34.67;101822.97;4973916;28;45333;-55
2022/03/28 07:08:05;;;;;;;;;34.00;25.00;;;;;20.14;34.63;101835.22;4975408;28;45469;-53
2022/03/28 07:10:30;;;;;;;;;31.00;23.25;;;;;20.13;34.40;101825.59;4975213;28;46526;-52
2022/03/28 07:12:56;;;;;;;;;34.50;26.75;;;;;20.15;34.76;101820.28;4975645;28;45451;-53
2022/03/28 07:15:22;;;;;;;;;28.25;21.75;;;;;20.15;34.46;101820.28;4975234;28;45244;-50
2022/03/28 07:17:54;;;;;;;;;34.75;25.75;;;;;20.15;34.62;101818.53;4975377;28;45619;-49
2022/03/28 07:20:24;;;;;;;;;25.50;23.00;;;;;20.15;34.67;101817.63;4975094;28;45393;-53
2022/03/28 07:22:50;;;;;;;;;30.25;27.25;;;;;20.16;34.39;101816.72;4975348;28;45421;-53
2022/03/28 07:25:16;;;;;;;;;33.50;29.50;;;;;20.17;34.52;101813.19;4975242;28;45431;-50
2022/03/28 07:27:42;;;;;;;;;28.50;26.00;;;;;20.17;34.83;101818.44;4975359;28;45495;-51
2022/03/28 07:30:11;;;;;;;;;27.50;23.25;;;;;20.18;34.47;101820.16;4975087;28;45475;-52
2022/03/28 07:32:37;;;;;;;;;28.50;25.50;;;;;20.18;34.67;101812.28;4974946;28;45253;-43
2022/03/28 07:35:03;;;;;;;;;26.75;25.75;;;;;20.16;34.55;101822.88;4975278;28;45275;-48
2022/03/28 07:37:29;;;;;;;;;28.25;25.50;;;;;20.18;34.61;101815.75;4990792;28;45429;-53
2022/03/28 07:39:54;;;;;;;;;33.00;30.75;;;;;20.18;35.19;101813.13;4973813;28;45416;-51
2022/03/28 07:42:20;;;;;;;;;31.50;29.00;;;;;20.19;34.61;101811.34;4974953;28;45311;-52
2022/03/28 07:44:45;;;;;;;;;29.75;24.25;;;;;20.19;34.53;101803.47;4975020;28;45430;-53
2022/03/28 07:47:11;;;;;;;;;28.75;25.50;;;;;20.19;34.97;101806.94;4973995;28;46021;-50
2022/03/28 07:49:38;;;;;;;;;28.75;25.25;;;;;20.22;34.62;101805.97;4974867;28;46496;-47
2022/03/28 07:52:04;;;;;;;;;24.50;21.75;;;;;20.21;34.76;101799.00;4974904;28;45410;-51
2022/03/28 07:54:29;;;;;;;;;28.00;24.25;;;;;20.22;34.67;101805.97;4975155;28;45276;-53
2022/03/28 07:56:55;;;;;;;;;30.75;22.75;;;;;20.23;34.89;101812.94;4974968;28;45314;-54
2022/03/28 07:59:23;;;;;;;;;33.50;27.25;;;;;20.24;34.79;101809.38;4974574;28;46446;-54
2022/03/28 08:01:50;;;;;;;;;26.25;22.75;;;;;20.24;34.50;101810.25;4974547;28;46021;-54
2022/03/28 08:04:15;;;;;;;;;23.00;20.00;;;;;20.24;34.71;101806.75;4974737;28;45422;-54
2022/03/28 08:06:40;;;;;;;;;26.50;22.50;;;;;20.26;34.95;101807.56;4974761;28;45393;-52
2022/03/28 08:09:06;;;;;;;;;27.00;24.00;;;;;20.26;34.76;101802.28;4974516;28;45354;-47
2022/03/28 08:11:31;;;;;;;;;27.00;22.00;;;;;20.27;34.68;101804.00;4974729;28;45400;-54
2022/03/28 08:13:57;;;;;;;;;26.67;23.00;;;;;20.29;35.30;101807.44;4974610;28;45295;-53
2022/03/28 08:16:22;;;;;;;;;33.00;23.50;;;;;20.29;34.92;101801.31;4974685;28;45560;-50
2022/03/28 08:18:47;;;;;;;;;29.25;23.50;;;;;20.28;34.80;101797.84;4972258;28;47272;-53
2022/03/28 08:21:13;;;;;;;;;27.75;24.00;;;;;20.29;34.94;101802.19;4973182;28;45415;-49
2022/03/28 08:23:38;;;;;;;;;28.25;23.50;;;;;20.31;34.92;101804.75;4974605;28;45202;-45
2022/03/28 08:26:04;;;;;;;;;32.50;26.00;;;;;20.31;35.11;101807.38;4973263;28;45506;-47
2022/03/28 08:28:30;;;;;;;;;29.00;25.50;;;;;20.32;35.12;101803.81;4974680;28;45885;-50
2022/03/28 08:30:56;;;;;;;;;29.00;26.50;;;;;20.32;34.98;101807.34;4974277;28;45770;-47
2022/03/28 08:33:21;;;;;;;;;27.50;24.75;;;;;20.34;35.05;101802.00;4974465;28;45449;-53
2022/03/28 08:35:47;;;;;;;;;33.75;29.50;;;;;20.34;34.88;101794.94;4974410;28;45303;-53
2022/03/28 08:38:12;;;;;;;;;30.25;27.50;;;;;20.34;34.87;101792.31;4975279;28;45358;-52
2022/03/28 08:40:41;;;;;;;;;24.00;19.75;;;;;20.35;35.04;101790.56;4974113;28;45504;-52
2022/03/28 08:43:08;;;;;;;;;29.25;25.75;;;;;20.36;34.67;101787.84;4974117;28;45435;-51
2022/03/28 08:45:37;;;;;;;;;30.00;29.00;;;;;20.37;34.84;101794.00;4974684;28;45488;-47
2022/03/28 08:48:05;;;;;;;;;30.00;25.25;;;;;20.36;35.20;101787.84;4974290;28;46526;-49
2022/03/28 08:50:34;;;;;;;;;28.00;24.25;;;;;20.37;34.89;101786.94;4974472;28;46061;-51
2022/03/28 08:52:59;;;;;;;;;28.50;23.75;;;;;20.38;34.89;101785.19;4974408;28;45489;-53
2022/03/28 08:55:25;;;;;;;;;30.50;27.25;;;;;20.38;35.28;101786.03;4972957;28;45950;-45
2022/03/28 08:57:50;;;;;;;;;35.00;30.00;;;;;20.39;34.72;101785.09;4973898;28;45311;-56
2022/03/28 09:00:16;;;;;;;;;31.00;27.75;;;;;20.39;35.29;101777.19;4973924;28;45446;-51
2022/03/28 09:02:46;;;;;;;;;27.50;21.75;;;;;20.39;34.86;101779.00;4974030;28;45391;-49
2022/03/28 09:05:12;;;;;;;;;30.25;25.75;;;;;20.42;34.92;101775.38;4974086;28;45358;-54
2022/03/28 09:07:38;;;;;;;;;31.25;28.00;;;;;20.42;34.90;101778.00;4973798;28;45316;-44
2022/03/28 09:10:07;;;;;;;;;27.50;23.75;;;;;20.42;34.72;101781.47;4974005;28;45168;-49
2022/03/28 09:12:39;;;;;;;;;29.00;24.50;;;;;20.43;35.30;101779.72;4972864;28;45272;-45
2022/03/28 09:15:09;;;;;;;;;34.75;28.75;;;;;20.44;35.30;101781.44;4973063;28;45377;-50
2022/03/28 09:17:38;;;;;;;;;39.00;31.00;;;;;20.46;34.94;101782.22;4973724;28;46977;-49
2022/03/28 09:20:04;;;;;;;;;28.75;26.50;;;;;20.45;35.15;101786.63;4974035;28;45377;-51
2022/03/28 09:22:31;;;;;;;;;24.75;22.00;;;;;20.46;35.28;101779.56;4973715;28;45298;-46
2022/03/28 09:25:08;;;;;;;;;22.50;20.75;;;;;20.46;35.22;101774.31;4973796;28;45214;-56
2022/03/28 09:27:39;;;;;;;;;28.75;26.75;;;;;20.46;34.82;101771.69;4973817;28;46154;-50
2022/03/28 09:30:05;;;;;;;;;31.00;25.75;;;;;20.47;34.79;101770.75;4975585;28;45324;-44
2022/03/28 09:32:34;;;;;;;;;28.00;23.75;;;;;20.49;34.88;101771.56;4975513;28;45309;-41
2022/03/28 09:35:31;;;;;;;;;26.75;22.00;;;;;20.48;35.07;101775.13;4976764;28;45284;-42
2022/03/28 09:38:05;;;;;;;;;32.25;29.50;;;;;20.48;35.52;101769.84;4976822;28;45503;-44
2022/03/28 09:40:57;;;;;;;;;28.50;23.75;;;;;20.49;34.98;101767.19;4974247;28;45738;-44
2022/03/28 09:43:25;;;;;;;;;32.75;29.00;;;;;20.50;35.26;101763.63;4978212;28;45166;-47
2022/03/28 09:45:55;;;;;;;;;32.25;28.25;;;;;20.51;35.45;101764.47;4974997;28;45383;-55
2022/03/28 09:48:25;;;;;;;;;29.50;22.75;;;;;20.50;34.88;101754.84;4975611;28;45693;-51
2022/03/28 09:51:03;;;;;;;;;28.50;26.75;;;;;20.51;34.87;101753.94;4974973;28;45340;-49
2022/03/28 09:53:32;;;;;;;;;26.75;25.75;;;;;20.50;34.83;101750.47;4976330;28;45210;-53
2022/03/28 09:56:01;;;;;;;;;30.75;24.25;;;;;20.51;35.04;101748.66;4976453;28;45324;-55
2022/03/28 09:58:33;;;;;;;;;31.50;27.50;;;;;20.53;35.24;101749.47;4976113;28;45384;-50
2022/03/28 10:01:00;;;;;;;;;24.75;19.25;;;;;20.52;34.74;101742.47;4974939;28;45759;-54
2022/03/28 10:03:31;;;;;;;;;24.00;23.00;;;;;20.53;34.57;101744.19;4976303;28;45358;-52
2022/03/28 10:05:56;;;;;;;;;28.75;23.25;;;;;20.53;34.93;101744.19;4976360;28;45448;-55
2022/03/28 10:08:22;;;;;;;;;24.00;22.75;;;;;20.53;34.55;101737.13;4975876;28;46693;-55
2022/03/28 10:10:49;;;;;;;;;31.25;22.00;;;;;20.53;35.00;101731.88;4976171;28;45926;-55
2022/03/28 10:13:16;;;;;;;;;28.25;22.50;;;;;20.54;34.85;101727.47;4975046;28;45448;-53
2022/03/28 10:15:43;;;;;;;;;33.75;24.50;;;;;20.55;35.05;101727.41;4974948;28;45423;-53
2022/03/28 10:18:08;;;;;;;;;25.25;23.00;;;;;20.57;34.92;101734.38;4976306;28;45308;-53
2022/03/28 10:20:33;;;;;;;;;28.50;22.75;;;;;20.57;34.23;101727.34;4976119;28;45231;-53
2022/03/28 10:23:00;;;;;;;;;37.00;28.50;;;;;20.58;34.16;101729.03;4974677;28;45332;-51
2022/03/28 10:25:27;;;;;;;;;24.00;19.25;;;;;20.58;34.14;101718.50;4976098;28;45383;-51
2022/03/28 10:27:53;;;;;;;;;32.50;26.25;;;;;20.59;34.64;101719.38;4975920;28;45306;-52
2022/03/28 10:30:30;;;;;;;;;28.50;23.75;;;;;20.58;34.13;101707.13;4975851;28;45436;-52
2022/03/28 10:33:19;;;;;;;;;36.25;31.50;;;;;20.60;33.83;101713.19;4974561;28;45323;-49
2022/03/28 10:35:58;;;;;;;;;31.25;27.25;;;;;20.61;33.97;101707.84;4974841;28;45538;-51
2022/03/28 10:38:24;;;;;;;;;25.50;20.25;;;;;20.61;33.60;101699.13;4974348;28;48029;-48
2022/03/28 10:40:55;;;;;;;;;34.75;26.50;;;;;20.61;33.48;101697.31;4975346;28;45965;-55
2022/03/28 10:43:24;;;;;;;;;31.00;28.50;;;;;20.60;33.47;101690.34;4974483;28;45301;-52
2022/03/28 10:45:56;;;;;;;;;33.25;26.50;;;;;20.63;33.23;101695.47;4975637;28;45593;-53
2022/03/28 10:48:40;;;;;;;;;29.25;23.75;;;;;20.63;33.73;101679.69;4975571;28;47238;-52
2022/03/28 10:51:10;;;;;;;;;36.00;30.25;;;;;20.63;33.19;101678.81;4976010;28;45720;-54
2022/03/28 10:53:40;;;;;;;;;27.50;22.00;;;;;20.62;33.21;101677.97;4974750;28;45355;-51
2022/03/28 10:56:23;;;;;;;;;28.25;26.25;;;;;20.63;33.82;101670.91;4974840;28;45532;-54
2022/03/28 10:59:29;;;;;;;;;32.50;27.50;;;;;20.63;33.26;101671.78;4975341;28;46434;-54
2022/03/28 11:01:55;;;;;;;;;28.25;23.25;;;;;20.64;33.56;101665.59;4983489;28;45985;-50
2022/03/28 11:04:24;;;;;;;;;27.75;26.75;;;;;20.65;33.35;101669.06;4975634;28;45378;-49
2022/03/28 11:07:05;;;;;;;;;33.25;30.75;;;;;20.67;33.45;101664.59;4975570;28;45472;-52
2022/03/28 11:09:48;;;;;;;;;30.50;27.00;;;;;20.66;33.61;101653.22;4975280;28;45320;-54
2022/03/28 11:12:15;;;;;;;;;36.25;27.50;;;;;20.68;33.31;101650.50;4974020;28;46060;-52